KMBL/MBL METAR and TAF weather

Enter ICAO airport designator
Station Type Date Time Source
KMBL METAR 2018/12/11 19:56 UTC NOAA

KMBL 111956Z AUTO 35004KT 10SM OVC017 00/M03 A2999 RMK AO2 SLP179 T00001033 FZRANO


Station Type Date Time Source
KMBL Decoded METAR 2018/12/11 19:56 UTC NOAA

Manistee, Manistee County-Blacker Airport, MI, United States (KMBL) 44-16N 086-15W
Dec 11, 2018 - 02:56 PM EST / 2018.12.11 1956 UTC
Wind: from the N (350 degrees) at 5 MPH (4 KT):0
Visibility: 10 mile(s):0
Sky conditions: overcast
Temperature: 32.0 F (0.0 C)
Windchill: 26 F (-3 C):1
Dew Point: 26.1 F (-3.3 C)
Relative Humidity: 78%
Pressure (altimeter): 29.99 in. Hg (1015 hPa)
ob: KMBL 111956Z AUTO 35004KT 10SM OVC017 00/M03 A2999 RMK AO2 SLP179 T00001033 FZRANO
cycle: 20

Station Type Date Time Source
KMBL TAF 2018/12/11 20:57 UTC NOAA

TAF
AMD KMBL 111956Z 1120/1218 32006KT P6SM OVC021
FM112200 VRB04KT P6SM OVC025
FM120700 VRB04KT P6SM BKN040
FM120900 12005KT P6SM BKN040
FM121700 13009KT P6SM OVC030


Example: see airport list